createdAt,value
2022-11-12T00:00:11.475Z,0.00
2022-11-12T00:01:11.444Z,0.00
2022-11-12T00:02:11.486Z,0.00
2022-11-12T00:03:12.445Z,0.00
2022-11-12T00:04:11.555Z,0.00
2022-11-12T00:05:11.707Z,0.00
2022-11-12T00:06:11.610Z,0.00
2022-11-12T00:07:12.689Z,0.00
2022-11-12T00:08:11.626Z,0.00
2022-11-12T00:09:11.631Z,0.00
2022-11-12T00:10:11.646Z,0.00
2022-11-12T00:11:11.582Z,0.00
2022-11-12T00:12:11.461Z,0.00
2022-11-12T00:13:11.560Z,0.00
2022-11-12T00:14:11.428Z,0.00
2022-11-12T00:15:11.374Z,0.00
2022-11-12T00:16:11.339Z,0.00
2022-11-12T00:17:11.329Z,0.00
2022-11-12T00:18:11.320Z,0.00
2022-11-12T00:19:11.312Z,0.00
2022-11-12T00:20:11.335Z,0.00
2022-11-12T00:21:11.298Z,0.00
2022-11-12T00:22:11.283Z,0.00
2022-11-12T00:23:11.279Z,0.00
2022-11-12T00:24:11.275Z,0.00
2022-11-12T00:25:11.296Z,0.00
2022-11-12T00:26:11.304Z,0.00
2022-11-12T00:27:11.247Z,0.00
2022-11-12T00:28:11.277Z,0.00
2022-11-12T00:29:11.228Z,0.00
2022-11-12T00:30:11.411Z,0.00
2022-11-12T00:31:11.280Z,0.00
2022-11-12T00:32:11.205Z,0.00
2022-11-12T00:33:11.195Z,0.00
2022-11-12T00:34:11.195Z,0.00
2022-11-12T00:35:13.855Z,0.00
2022-11-12T00:36:12.173Z,0.00
2022-11-12T00:37:11.166Z,0.00
2022-11-12T00:38:11.155Z,0.00
2022-11-12T00:39:11.881Z,0.00
2022-11-12T00:40:11.204Z,0.00
2022-11-12T00:41:11.128Z,0.00
2022-11-12T00:42:11.141Z,0.00
2022-11-12T00:43:11.107Z,0.00
2022-11-12T00:44:11.112Z,0.00
2022-11-12T00:45:11.135Z,0.00
2022-11-12T00:46:11.163Z,0.00
2022-11-12T00:47:11.078Z,0.00
2022-11-12T00:48:11.073Z,0.00
2022-11-12T00:49:11.078Z,0.00
2022-11-12T00:50:11.090Z,0.00
2022-11-12T00:51:11.060Z,0.00
2022-11-12T00:52:11.050Z,0.00
2022-11-12T00:53:11.037Z,0.00
2022-11-12T00:54:11.030Z,0.00
2022-11-12T00:55:11.042Z,0.00
2022-11-12T00:56:11.065Z,0.00
2022-11-12T00:57:10.999Z,0.00
2022-11-12T00:58:11.025Z,0.00
2022-11-12T00:59:10.983Z,0.00
2022-11-12T01:00:11.040Z,0.00
2022-11-12T01:01:10.999Z,0.00
2022-11-12T01:02:11.206Z,0.00
2022-11-12T01:03:10.955Z,0.00
2022-11-12T01:04:11.150Z,0.00
2022-11-12T01:05:10.963Z,0.00
2022-11-12T01:06:10.932Z,0.00
2022-11-12T01:07:11.031Z,0.00
2022-11-12T01:08:11.152Z,0.00
2022-11-12T01:09:10.905Z,0.00
2022-11-12T01:10:10.920Z,0.00
2022-11-12T01:11:10.885Z,0.00
2022-11-12T01:12:10.886Z,0.00
2022-11-12T01:13:10.865Z,0.00
2022-11-12T01:14:10.864Z,0.00
2022-11-12T01:15:10.886Z,0.00
2022-11-12T01:16:10.849Z,0.00
2022-11-12T01:17:10.840Z,0.00
2022-11-12T01:18:10.902Z,0.00
2022-11-12T01:19:10.827Z,0.00
2022-11-12T01:20:10.853Z,0.00
2022-11-12T01:21:10.814Z,0.00
2022-11-12T01:22:10.799Z,0.00
2022-11-12T01:23:10.802Z,0.00
2022-11-12T01:24:10.804Z,0.00
2022-11-12T01:25:10.947Z,0.00
2022-11-12T01:26:10.770Z,0.00
2022-11-12T01:27:10.759Z,0.00
2022-11-12T01:28:10.753Z,0.00
2022-11-12T01:29:10.743Z,0.00
2022-11-12T01:30:10.764Z,0.00
2022-11-12T01:31:10.758Z,0.00
2022-11-12T01:32:10.721Z,0.00
2022-11-12T01:33:10.836Z,0.00
2022-11-12T01:34:10.783Z,0.00
2022-11-12T01:35:10.729Z,0.00
2022-11-12T01:36:10.688Z,0.00
2022-11-12T01:37:10.683Z,0.00
2022-11-12T01:38:10.676Z,0.00
2022-11-12T01:39:10.671Z,0.00
2022-11-12T01:40:10.685Z,0.00
2022-11-12T01:41:10.658Z,0.00
2022-11-12T01:42:10.649Z,0.00
2022-11-12T01:43:10.637Z,0.00
2022-11-12T01:44:10.644Z,0.00
2022-11-12T01:45:10.652Z,0.00
2022-11-12T01:46:10.619Z,0.00
2022-11-12T01:47:10.605Z,0.00
2022-11-12T01:48:10.593Z,0.00
2022-11-12T01:49:10.586Z,0.00
2022-11-12T01:50:10.748Z,0.00
2022-11-12T01:51:10.568Z,0.00
2022-11-12T01:52:10.558Z,0.00
2022-11-12T01:53:10.549Z,0.00
2022-11-12T01:54:10.545Z,0.00
2022-11-12T01:55:10.570Z,0.00
2022-11-12T01:56:10.529Z,0.00
2022-11-12T01:57:10.521Z,0.00
2022-11-12T01:58:10.580Z,0.00
2022-11-12T01:59:10.499Z,0.00
2022-11-12T02:00:10.587Z,0.00
2022-11-12T02:01:10.586Z,0.00
2022-11-12T02:02:10.479Z,0.00
2022-11-12T02:03:10.584Z,0.00
2022-11-12T02:04:10.462Z,0.00
2022-11-12T02:05:10.480Z,0.00
2022-11-12T02:06:10.635Z,0.00
2022-11-12T02:07:10.524Z,0.00
2022-11-12T02:08:10.553Z,0.00
2022-11-12T02:09:10.499Z,0.00
2022-11-12T02:10:10.474Z,0.00
2022-11-12T02:11:10.385Z,0.00
2022-11-12T02:12:11.418Z,0.00
2022-11-12T02:13:10.384Z,0.00
2022-11-12T02:14:10.480Z,0.00
2022-11-12T02:15:10.387Z,0.00
2022-11-12T02:16:10.380Z,0.00
2022-11-12T02:17:10.342Z,0.00
2022-11-12T02:18:10.340Z,0.00
2022-11-12T02:19:10.332Z,0.00
2022-11-12T02:20:10.351Z,0.00
2022-11-12T02:21:10.316Z,0.00
2022-11-12T02:22:10.375Z,0.00
2022-11-12T02:23:10.301Z,0.00
2022-11-12T02:24:10.329Z,0.00
2022-11-12T02:25:10.465Z,0.00
2022-11-12T02:26:10.287Z,0.00
2022-11-12T02:27:10.274Z,0.00
2022-11-12T02:28:10.252Z,0.00
2022-11-12T02:29:10.252Z,0.00
2022-11-12T02:30:10.452Z,0.00
2022-11-12T02:31:10.230Z,0.00
2022-11-12T02:32:10.233Z,0.00
2022-11-12T02:33:10.223Z,0.00
2022-11-12T02:34:10.208Z,0.00
2022-11-12T02:35:10.299Z,0.00
2022-11-12T02:36:10.251Z,0.00
2022-11-12T02:37:10.181Z,0.00
2022-11-12T02:38:10.243Z,0.00
2022-11-12T02:39:10.171Z,0.00
2022-11-12T02:40:10.363Z,0.00
2022-11-12T02:41:10.151Z,0.00
2022-11-12T02:42:10.140Z,0.00
2022-11-12T02:43:10.136Z,0.00
2022-11-12T02:44:10.123Z,0.00
2022-11-12T02:45:10.140Z,0.00
2022-11-12T02:46:10.206Z,0.00
2022-11-12T02:47:10.097Z,0.00
2022-11-12T02:48:12.949Z,0.00
2022-11-12T02:49:11.082Z,0.00
2022-11-12T02:50:10.103Z,0.00
2022-11-12T02:51:10.123Z,0.00
2022-11-12T02:52:10.056Z,0.00
2022-11-12T02:53:10.057Z,0.00
2022-11-12T02:54:10.120Z,0.00
2022-11-12T02:55:10.070Z,0.00
2022-11-12T02:56:10.039Z,0.00
2022-11-12T02:57:10.029Z,0.00
2022-11-12T02:58:10.009Z,0.00
2022-11-12T02:59:11.003Z,0.00
2022-11-12T03:00:10.024Z,0.00
2022-11-12T03:01:10.043Z,0.00
2022-11-12T03:02:09.978Z,0.00
2022-11-12T03:03:09.966Z,0.00
2022-11-12T03:04:09.965Z,0.00
2022-11-12T03:05:09.975Z,0.00
2022-11-12T03:06:09.948Z,0.00
2022-11-12T03:07:09.965Z,0.00
2022-11-12T03:08:09.932Z,0.00
2022-11-12T03:09:09.988Z,0.00
2022-11-12T03:10:10.010Z,0.00
2022-11-12T03:11:09.895Z,0.00
2022-11-12T03:12:09.905Z,0.00
2022-11-12T03:13:09.883Z,0.00
2022-11-12T03:14:09.881Z,0.00
2022-11-12T03:15:09.896Z,0.00
2022-11-12T03:16:09.864Z,0.00
2022-11-12T03:17:09.851Z,0.00
2022-11-12T03:18:09.838Z,0.00
2022-11-12T03:19:09.836Z,0.00
2022-11-12T03:20:09.849Z,0.00
2022-11-12T03:21:09.817Z,0.00
2022-11-12T03:22:09.809Z,0.00
2022-11-12T03:23:09.850Z,0.00
2022-11-12T03:24:09.953Z,0.00
2022-11-12T03:25:09.819Z,0.00
2022-11-12T03:26:09.851Z,0.00
2022-11-12T03:27:09.775Z,0.00
2022-11-12T03:28:09.761Z,0.00
2022-11-12T03:29:09.754Z,0.00
2022-11-12T03:30:09.777Z,0.00
2022-11-12T03:31:09.731Z,0.00
2022-11-12T03:32:09.729Z,0.00
2022-11-12T03:33:09.722Z,0.00
2022-11-12T03:34:09.709Z,0.00
2022-11-12T03:35:09.722Z,0.00
2022-11-12T03:36:09.694Z,0.00
2022-11-12T03:37:09.731Z,0.00
2022-11-12T03:38:09.676Z,0.00
2022-11-12T03:39:09.669Z,0.00
2022-11-12T03:40:09.686Z,0.00
2022-11-12T03:41:09.649Z,0.00
2022-11-12T03:42:09.722Z,0.00
2022-11-12T03:43:09.629Z,0.00
2022-11-12T03:44:09.624Z,0.00
2022-11-12T03:45:09.654Z,0.00
2022-11-12T03:46:09.608Z,0.00
2022-11-12T03:47:10.633Z,0.00
2022-11-12T03:48:09.594Z,0.00
2022-11-12T03:49:09.586Z,0.00
2022-11-12T03:50:09.601Z,0.00
2022-11-12T03:51:09.562Z,0.00
2022-11-12T03:52:09.547Z,0.00
2022-11-12T03:53:09.541Z,0.00
2022-11-12T03:54:09.548Z,0.00
2022-11-12T03:55:09.560Z,0.00
2022-11-12T03:56:09.532Z,0.00
2022-11-12T03:57:09.558Z,0.00
2022-11-12T03:58:09.584Z,0.00
2022-11-12T03:59:09.506Z,0.00
2022-11-12T04:00:09.518Z,0.00
2022-11-12T04:01:09.507Z,0.00
2022-11-12T04:02:09.475Z,0.00
2022-11-12T04:03:09.464Z,0.00
2022-11-12T04:04:09.463Z,0.00
2022-11-12T04:05:09.518Z,0.00
2022-11-12T04:06:09.443Z,0.00
2022-11-12T04:07:09.566Z,0.00
2022-11-12T04:08:09.428Z,0.00
2022-11-12T04:09:09.425Z,0.00
2022-11-12T04:10:09.446Z,0.00
2022-11-12T04:11:09.400Z,0.00
2022-11-12T04:12:09.394Z,0.00
2022-11-12T04:13:09.386Z,0.00
2022-11-12T04:14:09.472Z,0.00
2022-11-12T04:15:09.410Z,0.00
2022-11-12T04:16:09.366Z,0.00
2022-11-12T04:17:09.356Z,0.00
2022-11-12T04:18:09.333Z,0.00
2022-11-12T04:19:09.328Z,0.00
2022-11-12T04:20:09.360Z,0.00
2022-11-12T04:21:09.312Z,0.00
2022-11-12T04:22:09.320Z,0.00
2022-11-12T04:23:09.305Z,0.00
2022-11-12T04:24:09.291Z,0.00
2022-11-12T04:25:09.323Z,0.00
2022-11-12T04:26:09.295Z,0.00
2022-11-12T04:27:09.271Z,0.00
2022-11-12T04:28:09.258Z,0.00
2022-11-12T04:29:09.248Z,0.00
2022-11-12T04:30:09.310Z,0.00
2022-11-12T04:31:09.267Z,0.00
2022-11-12T04:32:09.224Z,0.00
2022-11-12T04:33:09.216Z,0.00
2022-11-12T04:34:09.214Z,0.00
2022-11-12T04:35:09.245Z,0.00
2022-11-12T04:36:09.225Z,0.00
2022-11-12T04:37:09.189Z,0.00
2022-11-12T04:38:09.294Z,0.00
2022-11-12T04:39:09.165Z,0.00
2022-11-12T04:40:09.192Z,0.00
2022-11-12T04:41:09.153Z,0.00
2022-11-12T04:42:09.145Z,0.00
2022-11-12T04:43:09.139Z,0.00
2022-11-12T04:44:09.131Z,0.00
2022-11-12T04:45:09.246Z,0.00
2022-11-12T04:46:09.185Z,0.00
2022-11-12T04:47:09.114Z,0.00
2022-11-12T04:48:09.112Z,0.00
2022-11-12T04:49:09.093Z,0.00
2022-11-12T04:50:09.080Z,0.00
2022-11-12T04:51:09.105Z,0.00
2022-11-12T04:52:09.073Z,0.00
2022-11-12T04:53:09.057Z,0.00
2022-11-12T04:54:09.052Z,0.00
2022-11-12T04:55:09.048Z,0.00
2022-11-12T04:56:09.063Z,0.00
2022-11-12T04:57:09.027Z,0.00
2022-11-12T04:58:09.891Z,0.00
2022-11-12T04:59:10.010Z,0.00
2022-11-12T05:00:08.999Z,0.00
2022-11-12T05:01:09.083Z,0.00
2022-11-12T05:02:09.053Z,0.00
2022-11-12T05:03:08.982Z,0.00
2022-11-12T05:04:08.967Z,0.00
2022-11-12T05:05:08.963Z,0.00
2022-11-12T05:06:08.979Z,0.00
2022-11-12T05:07:08.965Z,0.00
2022-11-12T05:08:08.931Z,0.00
2022-11-12T05:09:08.916Z,0.00
2022-11-12T05:10:08.916Z,0.00
2022-11-12T05:11:12.834Z,0.00
2022-11-12T05:12:09.897Z,0.00
2022-11-12T05:13:08.912Z,0.00
2022-11-12T05:14:08.894Z,0.00
2022-11-12T05:15:08.878Z,0.00
2022-11-12T05:16:09.055Z,0.00
2022-11-12T05:17:08.862Z,0.00
2022-11-12T05:18:08.929Z,0.00
2022-11-12T05:19:08.843Z,0.00
2022-11-12T05:20:08.827Z,0.00
2022-11-12T05:21:09.851Z,0.00
2022-11-12T05:22:13.907Z,0.00
2022-11-12T05:23:10.811Z,0.00
2022-11-12T05:24:22.168Z,0.00
2022-11-12T05:25:09.795Z,0.00
2022-11-12T05:26:08.820Z,0.00
2022-11-12T05:27:08.775Z,0.00
2022-11-12T05:28:08.768Z,0.00
2022-11-12T05:29:09.142Z,0.00
2022-11-12T05:30:09.750Z,0.00
2022-11-12T05:31:08.776Z,0.00
2022-11-12T05:32:08.739Z,0.00
2022-11-12T05:33:08.719Z,0.00
2022-11-12T05:34:08.776Z,0.00
2022-11-12T05:35:08.707Z,0.00
2022-11-12T05:36:08.762Z,0.00
2022-11-12T05:37:08.689Z,0.00
2022-11-12T05:38:08.680Z,0.00
2022-11-12T05:39:08.680Z,0.00
2022-11-12T05:40:08.676Z,0.00
2022-11-12T05:41:08.793Z,0.00
2022-11-12T05:42:13.485Z,0.00
2022-11-12T05:43:10.822Z,0.00
2022-11-12T05:44:08.643Z,0.00
2022-11-12T05:45:08.680Z,0.00
2022-11-12T05:46:08.643Z,0.00
2022-11-12T05:47:08.608Z,0.00
2022-11-12T05:48:08.663Z,0.00
2022-11-12T05:49:08.593Z,0.00
2022-11-12T05:50:08.665Z,0.00
2022-11-12T05:51:13.417Z,0.00
2022-11-12T05:52:10.567Z,0.00
2022-11-12T05:53:08.570Z,0.00
2022-11-12T05:54:08.548Z,0.00
2022-11-12T05:55:08.549Z,0.00
2022-11-12T05:56:08.586Z,0.00
2022-11-12T05:57:08.525Z,0.00
2022-11-12T05:58:08.541Z,0.00
2022-11-12T05:59:08.512Z,0.00
2022-11-12T06:00:08.506Z,0.00
2022-11-12T06:01:08.502Z,0.00
2022-11-12T06:02:08.603Z,0.00
2022-11-12T06:03:08.484Z,0.00
2022-11-12T06:04:08.466Z,0.00
2022-11-12T06:05:08.463Z,0.00
2022-11-12T06:06:08.575Z,0.00
2022-11-12T06:07:08.496Z,0.00
2022-11-12T06:08:08.431Z,0.00
2022-11-12T06:09:08.432Z,0.00
2022-11-12T06:10:08.418Z,0.00
2022-11-12T06:11:08.411Z,0.00
2022-11-12T06:12:08.432Z,0.00
2022-11-12T06:13:08.393Z,0.00
2022-11-12T06:14:08.382Z,0.00
2022-11-12T06:15:08.377Z,0.00
2022-11-12T06:16:08.371Z,0.00
2022-11-12T06:17:08.410Z,0.00
2022-11-12T06:18:08.356Z,0.00
2022-11-12T06:19:08.349Z,0.00
2022-11-12T06:20:08.332Z,0.00
2022-11-12T06:21:09.329Z,0.00
2022-11-12T06:22:08.423Z,0.00
2022-11-12T06:23:08.315Z,0.00
2022-11-12T06:24:08.305Z,0.00
2022-11-12T06:25:08.304Z,0.00
2022-11-12T06:26:08.287Z,0.00
2022-11-12T06:27:08.306Z,0.00
2022-11-12T06:28:08.329Z,0.00
2022-11-12T06:29:08.251Z,0.00
2022-11-12T06:30:08.255Z,0.00
2022-11-12T06:31:08.248Z,5.62
2022-11-12T06:32:08.269Z,5.62
2022-11-12T06:33:08.224Z,5.62
2022-11-12T06:34:08.223Z,5.62
2022-11-12T06:35:08.212Z,5.62
2022-11-12T06:36:08.203Z,5.62
2022-11-12T06:37:08.230Z,5.62
2022-11-12T06:38:08.265Z,5.62
2022-11-12T06:39:08.184Z,5.62
2022-11-12T06:40:08.171Z,11.25
2022-11-12T06:41:08.168Z,11.25
2022-11-12T06:42:08.189Z,11.25
2022-11-12T06:43:08.349Z,11.25
2022-11-12T06:44:08.138Z,11.25
2022-11-12T06:45:08.124Z,11.25
2022-11-12T06:46:08.117Z,16.88
2022-11-12T06:47:08.125Z,16.88
2022-11-12T06:48:09.102Z,16.88
2022-11-12T06:49:08.098Z,22.50
2022-11-12T06:50:08.083Z,22.50
2022-11-12T06:51:08.077Z,22.50
2022-11-12T06:52:11.114Z,22.50
2022-11-12T06:53:09.059Z,28.12
2022-11-12T06:54:08.124Z,28.12
2022-11-12T06:55:08.041Z,28.12
2022-11-12T06:56:08.036Z,33.75
2022-11-12T06:57:08.057Z,33.75
2022-11-12T06:58:08.026Z,33.75
2022-11-12T06:59:08.014Z,33.75
2022-11-12T07:00:08.007Z,33.75
2022-11-12T07:01:11.466Z,39.38
2022-11-12T07:02:09.075Z,39.38
2022-11-12T07:03:07.987Z,39.38
2022-11-12T07:04:07.969Z,39.38
2022-11-12T07:05:07.959Z,39.38
2022-11-12T07:06:07.955Z,39.38
2022-11-12T07:07:10.579Z,45.00
2022-11-12T07:08:08.935Z,45.00
2022-11-12T07:09:07.928Z,45.00
2022-11-12T07:10:07.987Z,45.00
2022-11-12T07:11:07.908Z,50.62
2022-11-12T07:12:07.901Z,50.62
2022-11-12T07:13:07.927Z,50.62
2022-11-12T07:14:07.879Z,56.25
2022-11-12T07:15:07.872Z,56.25
2022-11-12T07:16:07.868Z,61.88
2022-11-12T07:17:07.851Z,61.88
2022-11-12T07:18:07.926Z,67.50
2022-11-12T07:19:07.839Z,67.50
2022-11-12T07:20:07.830Z,67.50
2022-11-12T07:21:07.825Z,67.50
2022-11-12T07:22:07.811Z,67.50
2022-11-12T07:23:07.847Z,73.12
2022-11-12T07:24:07.798Z,73.12
2022-11-12T07:25:07.786Z,73.12
2022-11-12T07:26:08.851Z,78.75
2022-11-12T07:27:07.769Z,84.38
2022-11-12T07:28:07.791Z,84.38
2022-11-12T07:29:07.760Z,90.00
2022-11-12T07:30:07.746Z,95.62
2022-11-12T07:31:07.812Z,112.50
2022-11-12T07:32:07.728Z,123.75
2022-11-12T07:33:07.743Z,129.38
2022-11-12T07:34:07.711Z,140.62
2022-11-12T07:35:07.706Z,151.88
2022-11-12T07:36:07.691Z,151.88
2022-11-12T07:37:07.683Z,151.88
2022-11-12T07:38:07.702Z,163.12
2022-11-12T07:39:07.676Z,168.75
2022-11-12T07:40:07.655Z,168.75
2022-11-12T07:41:07.663Z,168.75
2022-11-12T07:42:07.742Z,168.75
2022-11-12T07:43:07.657Z,180.00
2022-11-12T07:44:08.623Z,180.00
2022-11-12T07:45:07.616Z,174.38
2022-11-12T07:46:10.648Z,191.25
2022-11-12T07:47:08.600Z,196.88
2022-11-12T07:48:07.620Z,185.62
2022-11-12T07:49:07.589Z,185.62
2022-11-12T07:50:07.580Z,180.00
2022-11-12T07:51:07.564Z,180.00
2022-11-12T07:52:07.563Z,180.00
2022-11-12T07:53:07.578Z,174.38
2022-11-12T07:54:07.545Z,180.00
2022-11-12T07:55:07.537Z,180.00
2022-11-12T07:56:07.528Z,180.00
2022-11-12T07:57:07.525Z,191.25
2022-11-12T07:58:07.612Z,208.12
2022-11-12T07:59:07.504Z,213.75
2022-11-12T08:00:07.495Z,213.75
2022-11-12T08:01:07.511Z,219.38
2022-11-12T08:02:07.483Z,236.25
2022-11-12T08:03:07.501Z,258.75
2022-11-12T08:04:07.466Z,286.88
2022-11-12T08:05:13.712Z,275.62
2022-11-12T08:06:09.451Z,270.00
2022-11-12T08:07:07.525Z,253.12
2022-11-12T08:08:07.566Z,253.12
2022-11-12T08:09:07.423Z,286.88
2022-11-12T08:10:07.418Z,286.88
2022-11-12T08:11:07.409Z,253.12
2022-11-12T08:12:07.411Z,236.25
2022-11-12T08:13:07.388Z,258.75
2022-11-12T08:14:07.477Z,281.25
2022-11-12T08:15:07.367Z,292.50
2022-11-12T08:16:08.364Z,275.62
2022-11-12T08:17:07.356Z,292.50
2022-11-12T08:18:07.341Z,298.12
2022-11-12T08:19:08.400Z,309.38
2022-11-12T08:20:07.328Z,303.75
2022-11-12T08:21:07.319Z,320.62
2022-11-12T08:22:07.314Z,331.88
2022-11-12T08:23:07.301Z,360.00
2022-11-12T08:24:07.325Z,371.25
2022-11-12T08:25:07.282Z,326.25
2022-11-12T08:26:07.294Z,331.88
2022-11-12T08:27:08.275Z,360.00
2022-11-12T08:28:07.288Z,354.38
2022-11-12T08:29:08.791Z,360.00
2022-11-12T08:30:08.316Z,399.38
2022-11-12T08:31:07.232Z,500.62
2022-11-12T08:32:08.225Z,562.50
2022-11-12T08:33:07.224Z,978.75
2022-11-12T08:34:07.250Z,905.62
2022-11-12T08:35:07.212Z,1771.88
2022-11-12T08:36:07.226Z,1670.62
2022-11-12T08:37:07.185Z,1496.25
2022-11-12T08:38:07.185Z,1366.88
2022-11-12T08:39:07.200Z,1085.62
2022-11-12T08:40:07.165Z,916.88
2022-11-12T08:41:07.158Z,956.25
2022-11-12T08:42:07.146Z,776.25
2022-11-12T08:43:07.149Z,697.50
2022-11-12T08:44:08.682Z,601.88
2022-11-12T08:45:08.129Z,601.88
2022-11-12T08:46:07.184Z,590.62
2022-11-12T08:47:07.115Z,562.50
2022-11-12T08:48:07.101Z,579.38
2022-11-12T08:49:07.130Z,630.00
2022-11-12T08:50:07.098Z,663.75
2022-11-12T08:51:07.072Z,759.38
2022-11-12T08:52:08.073Z,815.62
2022-11-12T08:53:07.061Z,832.50
2022-11-12T08:54:07.084Z,826.88
2022-11-12T08:55:07.041Z,787.50
2022-11-12T08:56:07.034Z,826.88
2022-11-12T08:57:07.028Z,810.00
2022-11-12T08:58:07.025Z,787.50
2022-11-12T08:59:07.651Z,781.88
2022-11-12T09:00:08.007Z,770.62
2022-11-12T09:01:06.992Z,770.62
2022-11-12T09:02:07.049Z,776.25
2022-11-12T09:03:06.985Z,770.62
2022-11-12T09:04:06.997Z,765.00
2022-11-12T09:05:06.956Z,753.75
2022-11-12T09:06:06.951Z,753.75
2022-11-12T09:07:09.681Z,748.12
2022-11-12T09:08:07.991Z,742.50
2022-11-12T09:09:06.957Z,748.12
2022-11-12T09:10:06.910Z,748.12
2022-11-12T09:11:06.920Z,753.75
2022-11-12T09:12:14.964Z,770.62
2022-11-12T09:13:08.885Z,787.50
2022-11-12T09:14:06.958Z,804.38
2022-11-12T09:15:36.248Z,821.25
2022-11-12T09:16:08.868Z,843.75
2022-11-12T09:17:06.858Z,871.88
2022-11-12T09:18:06.908Z,900.00
2022-11-12T09:19:07.876Z,928.12
2022-11-12T09:20:06.923Z,945.00
2022-11-12T09:21:06.828Z,967.50
2022-11-12T09:22:06.819Z,967.50
2022-11-12T09:23:06.818Z,978.75
2022-11-12T09:24:06.795Z,1001.25
2022-11-12T09:25:06.819Z,1018.12
2022-11-12T09:26:06.791Z,1029.38
2022-11-12T09:27:06.780Z,1040.62
2022-11-12T09:28:06.765Z,1057.50
2022-11-12T09:29:06.788Z,1057.50
2022-11-12T09:30:06.775Z,1074.38
2022-11-12T09:31:06.745Z,1113.75
2022-11-12T09:32:06.737Z,1113.75
2022-11-12T09:33:06.730Z,1125.00
2022-11-12T09:34:06.787Z,1136.25
2022-11-12T09:35:06.739Z,1186.88
2022-11-12T09:36:06.700Z,1203.75
2022-11-12T09:37:06.703Z,1198.12
2022-11-12T09:38:06.686Z,1226.25
2022-11-12T09:39:06.680Z,1310.62
2022-11-12T09:40:06.702Z,1350.00
2022-11-12T09:41:06.668Z,1310.62
2022-11-12T09:42:06.656Z,1288.12
2022-11-12T09:43:06.647Z,1305.00
2022-11-12T09:44:06.638Z,1299.38
2022-11-12T09:45:06.658Z,1400.62
2022-11-12T09:46:26.607Z,1389.38
2022-11-12T09:47:08.613Z,1316.25
2022-11-12T09:48:06.601Z,1372.50
2022-11-12T09:49:06.604Z,1310.62
2022-11-12T09:50:06.713Z,1271.25
2022-11-12T09:51:06.579Z,1276.88
2022-11-12T09:52:06.570Z,1282.50
2022-11-12T09:53:06.568Z,1231.88
2022-11-12T09:54:06.563Z,1265.62
2022-11-12T09:55:06.576Z,1299.38
2022-11-12T09:56:06.540Z,1260.00
2022-11-12T09:57:06.528Z,1293.75
2022-11-12T09:58:06.521Z,1316.25
2022-11-12T09:59:06.512Z,1350.00
2022-11-12T10:00:06.541Z,1299.38
2022-11-12T10:01:06.500Z,1276.88
2022-11-12T10:02:06.540Z,1265.62
2022-11-12T10:03:06.489Z,1282.50
2022-11-12T10:04:06.488Z,1243.12
2022-11-12T10:05:06.500Z,1254.38
2022-11-12T10:06:10.369Z,1237.50
2022-11-12T10:07:07.478Z,1265.62
2022-11-12T10:08:06.445Z,1361.25
2022-11-12T10:09:06.435Z,1299.38
2022-11-12T10:10:06.452Z,1299.38
2022-11-12T10:11:06.426Z,1366.88
2022-11-12T10:12:06.410Z,1355.62
2022-11-12T10:13:06.405Z,1344.38
2022-11-12T10:14:06.397Z,1333.12
2022-11-12T10:15:06.417Z,1355.62
2022-11-12T10:16:06.376Z,1490.62
2022-11-12T10:17:06.364Z,1406.25
2022-11-12T10:18:06.365Z,1468.12
2022-11-12T10:19:06.367Z,1575.00
2022-11-12T10:20:06.467Z,1541.25
2022-11-12T10:21:06.342Z,1800.00
2022-11-12T10:22:06.407Z,1766.25
2022-11-12T10:23:06.321Z,1850.62
2022-11-12T10:24:06.314Z,1946.25
2022-11-12T10:25:06.491Z,1912.50
2022-11-12T10:26:07.328Z,1935.00
2022-11-12T10:27:06.292Z,1991.25
2022-11-12T10:28:06.285Z,1946.25
2022-11-12T10:29:06.302Z,1895.62
2022-11-12T10:30:06.271Z,1828.12
2022-11-12T10:31:06.259Z,1800.00
2022-11-12T10:32:06.244Z,1726.88
2022-11-12T10:33:06.235Z,1625.62
2022-11-12T10:34:06.262Z,1631.25
2022-11-12T10:35:06.232Z,1642.50
2022-11-12T10:36:06.248Z,1687.50
2022-11-12T10:37:06.210Z,1726.88
2022-11-12T10:38:06.272Z,1642.50
2022-11-12T10:39:06.211Z,1524.38
2022-11-12T10:40:06.183Z,1501.88
2022-11-12T10:41:10.628Z,1355.62
2022-11-12T10:42:07.170Z,1327.50
2022-11-12T10:43:06.153Z,1406.25
2022-11-12T10:44:06.167Z,1423.12
2022-11-12T10:45:06.137Z,1473.75
2022-11-12T10:46:06.122Z,1479.38
2022-11-12T10:47:06.110Z,1473.75
2022-11-12T10:48:06.107Z,1451.25
2022-11-12T10:49:06.131Z,1445.62
2022-11-12T10:50:06.098Z,1434.38
2022-11-12T10:51:06.080Z,1445.62
2022-11-12T10:52:06.057Z,1552.50
2022-11-12T10:53:07.085Z,1625.62
2022-11-12T10:54:06.146Z,1721.25
2022-11-12T10:55:07.046Z,1760.62
2022-11-12T10:56:06.040Z,1805.62
2022-11-12T10:57:06.036Z,1794.38
2022-11-12T10:58:06.020Z,1906.88
2022-11-12T10:59:06.052Z,1912.50
2022-11-12T11:00:06.047Z,1845.00
2022-11-12T11:01:06.000Z,1794.38
2022-11-12T11:02:06.000Z,1693.12
2022-11-12T11:03:05.981Z,1518.75
2022-11-12T11:04:06.086Z,1473.75
2022-11-12T11:05:05.976Z,1513.12
2022-11-12T11:06:05.955Z,1440.00
2022-11-12T11:07:06.128Z,1372.50
2022-11-12T11:08:05.947Z,1344.38
2022-11-12T11:09:05.967Z,1395.00
2022-11-12T11:10:05.998Z,1501.88
2022-11-12T11:11:05.922Z,1603.12
2022-11-12T11:12:05.908Z,1648.12
2022-11-12T11:13:05.898Z,1710.00
2022-11-12T11:14:05.929Z,1771.88
2022-11-12T11:15:05.889Z,1901.25
2022-11-12T11:16:05.935Z,2036.25
2022-11-12T11:17:05.867Z,2030.62
2022-11-12T11:18:05.860Z,1839.38
2022-11-12T11:19:05.856Z,1771.88
2022-11-12T11:20:05.877Z,1800.00
2022-11-12T11:21:05.835Z,1766.25
2022-11-12T11:22:05.835Z,1698.75
2022-11-12T11:23:05.814Z,1575.00
2022-11-12T11:24:05.816Z,1575.00
2022-11-12T11:25:05.829Z,1749.38
2022-11-12T11:26:05.865Z,1811.25
2022-11-12T11:27:05.784Z,1771.88
2022-11-12T11:28:05.768Z,1698.75
2022-11-12T11:29:05.764Z,1580.62
2022-11-12T11:30:05.789Z,1479.38
2022-11-12T11:31:06.753Z,1462.50
2022-11-12T11:32:05.747Z,1462.50
2022-11-12T11:33:05.737Z,1456.88
2022-11-12T11:34:05.730Z,1344.38
2022-11-12T11:35:05.747Z,1282.50
2022-11-12T11:36:05.708Z,1271.25
2022-11-12T11:37:05.704Z,1288.12
2022-11-12T11:38:05.696Z,1310.62
2022-11-12T11:39:05.687Z,1310.62
2022-11-12T11:40:05.718Z,1226.25
2022-11-12T11:41:05.670Z,1153.12
2022-11-12T11:42:05.728Z,1102.50
2022-11-12T11:43:06.653Z,1046.25
2022-11-12T11:44:08.824Z,1035.00
2022-11-12T11:45:06.671Z,978.75
2022-11-12T11:46:05.621Z,961.88
2022-11-12T11:47:05.621Z,939.38
2022-11-12T11:48:05.613Z,933.75
2022-11-12T11:49:05.601Z,928.12
2022-11-12T11:50:05.636Z,877.50
2022-11-12T11:51:05.594Z,804.38
2022-11-12T11:52:05.580Z,770.62
2022-11-12T11:53:05.567Z,753.75
2022-11-12T11:54:05.562Z,714.38
2022-11-12T11:55:05.585Z,686.25
2022-11-12T11:56:05.633Z,680.62
2022-11-12T11:57:05.534Z,697.50
2022-11-12T11:58:05.601Z,697.50
2022-11-12T11:59:05.523Z,680.62
2022-11-12T12:00:05.543Z,675.00
2022-11-12T12:01:05.504Z,663.75
2022-11-12T12:02:05.491Z,680.62
2022-11-12T12:03:05.575Z,708.75
2022-11-12T12:04:05.534Z,731.25
2022-11-12T12:05:05.475Z,736.88
2022-11-12T12:06:05.462Z,731.25
2022-11-12T12:07:05.542Z,731.25
2022-11-12T12:08:05.450Z,748.12
2022-11-12T12:09:05.467Z,748.12
2022-11-12T12:10:09.366Z,748.12
2022-11-12T12:11:08.702Z,748.12
2022-11-12T12:12:06.417Z,748.12
2022-11-12T12:13:05.407Z,748.12
2022-11-12T12:14:05.593Z,753.75
2022-11-12T12:15:05.390Z,765.00
2022-11-12T12:16:05.384Z,770.62
2022-11-12T12:17:05.381Z,776.25
2022-11-12T12:18:05.373Z,753.75
2022-11-12T12:19:05.361Z,736.88
2022-11-12T12:20:05.385Z,725.62
2022-11-12T12:21:05.348Z,703.12
2022-11-12T12:22:05.334Z,714.38
2022-11-12T12:23:05.327Z,697.50
2022-11-12T12:24:05.320Z,691.88
2022-11-12T12:25:05.356Z,697.50
2022-11-12T12:26:05.307Z,703.12
2022-11-12T12:27:05.296Z,686.25
2022-11-12T12:28:05.298Z,675.00
2022-11-12T12:29:05.275Z,669.38
2022-11-12T12:30:05.361Z,669.38
2022-11-12T12:31:05.257Z,675.00
2022-11-12T12:32:05.255Z,691.88
2022-11-12T12:33:05.245Z,714.38
2022-11-12T12:34:05.280Z,703.12
2022-11-12T12:35:05.222Z,680.62
2022-11-12T12:36:05.214Z,652.50
2022-11-12T12:37:05.209Z,646.88
2022-11-12T12:38:05.200Z,630.00
2022-11-12T12:39:05.226Z,624.38
2022-11-12T12:40:05.177Z,624.38
2022-11-12T12:41:05.170Z,618.75
2022-11-12T12:42:05.171Z,613.12
2022-11-12T12:43:06.164Z,601.88
2022-11-12T12:44:05.158Z,585.00
2022-11-12T12:45:05.339Z,585.00
2022-11-12T12:46:05.204Z,585.00
2022-11-12T12:47:05.126Z,596.25
2022-11-12T12:48:05.123Z,579.38
2022-11-12T12:49:05.115Z,573.75
2022-11-12T12:50:05.130Z,573.75